| time (UTC) | temp F | wind direction | speed knots | gust knots | rain 1hr in | rain 24hr in | rain mn in | humidity % | barometer mb |
| 20260504151145 | 70 | 112 | 2.6 | 4.3 | 0.00 | 0.00 | 0.00 | 42 | 1026.0 |
| 20260504150644 | 68 | 150 | 0.9 | 3.5 | 0.00 | 0.00 | 0.00 | 45 | 1026.0 |
| 20260504150144 | 68 | 278 | 0.0 | 4.3 | 0.00 | 0.00 | 0.00 | 44 | 1026.0 |
| 20260504141146 | 64 | 289 | 0.0 | 6.1 | 0.00 | 0.00 | 0.00 | 47 | 1026.0 |
| 20260504140646 | 65 | 84 | 0.9 | 4.3 | 0.00 | 0.00 | 0.00 | 47 | 1026.0 |
| 20260504140147 | 64 | 93 | 0.9 | 1.7 | 0.00 | 0.00 | 0.00 | 48 | 1026.0 |
| 20260504130644 | 57 | 276 | 1.7 | 2.6 | 0.00 | 0.00 | 0.00 | 73 | 1026.0 |
| 20260504130144 | 54 | 174 | 0.0 | 0.0 | 0.00 | 0.00 | 0.00 | 83 | 1026.0 |
| 20260504120143 | 44 | 290 | 0.0 | 0.9 | 0.00 | 0.00 | 0.00 | 99 | 1026.0 |
| 20260504110642 | 42 | 246 | 0.0 | 0.0 | 0.00 | 0.00 | 0.00 | 98 | 1025.0 |
| 20260504110145 | 42 | 336 | 0.0 | 0.0 | 0.00 | 0.00 | 0.00 | 98 | 1025.0 |
| 20260504100143 | 42 | 326 | 0.0 | 0.9 | 0.00 | 0.00 | 0.00 | 98 | 1025.0 |
| 20260504081644 | 43 | 230 | 0.0 | 0.0 | 0.00 | 0.00 | 0.00 | 95 | 1024.0 |
| 20260504081145 | 44 | 230 | 0.0 | 0.0 | 0.00 | 0.00 | 0.00 | 95 | 1024.0 |
| 20260504080644 | 44 | 230 | 0.0 | 0.0 | 0.00 | 0.00 | 0.00 | 95 | 1024.0 |
| 20260504080141 | 44 | 229 | 0.0 | 0.0 | 0.00 | 0.00 | 0.00 | 94 | 1024.0 |
| 20260504070204 | 45 | 304 | 0.0 | 0.0 | 0.00 | 0.00 | 0.00 | 92 | 1025.0 |
| 20260504060154 | 46 | 217 | 0.0 | 0.0 | 0.00 | 0.00 | 0.00 | 89 | 1024.0 |
| 20260504050641 | 48 | 217 | 0.0 | 0.0 | 0.00 | 0.00 | 0.00 | 86 | 1024.0 |
| 20260504050142 | 48 | 309 | 0.0 | 0.0 | 0.00 | 0.00 | 0.00 | 86 | 1025.0 |
| 20260504045643 | 48 | 297 | 0.0 | 0.0 | 0.00 | 0.00 | 0.00 | 85 | 1024.0 |
| 20260504045142 | 48 | 300 | 0.9 | 0.9 | 0.00 | 0.00 | 0.00 | 85 | 1025.0 |
| 20260504044641 | 48 | 315 | 0.0 | 0.0 | 0.00 | 0.00 | 0.00 | 85 | 1024.0 |
| 20260504044142 | 49 | 147 | 0.0 | 0.0 | 0.00 | 0.00 | 0.00 | 85 | 1025.0 |
| 20260504043641 | 49 | 147 | 0.0 | 0.0 | 0.00 | 0.00 | 0.00 | 84 | 1024.0 |
| 20260504043141 | 49 | 147 | 0.0 | 0.0 | 0.00 | 0.00 | 0.00 | 83 | 1024.0 |
| 20260504042644 | 49 | 311 | 0.0 | 0.9 | 0.00 | 0.00 | 0.00 | 82 | 1025.0 |
| 20260504042142 | 49 | 322 | 0.0 | 0.9 | 0.00 | 0.00 | 0.00 | 82 | 1025.0 |
| 20260504041645 | 49 | 269 | 0.0 | 0.9 | 0.00 | 0.00 | 0.00 | 82 | 1025.0 |
| 20260504041142 | 49 | 309 | 0.0 | 0.0 | 0.00 | 0.00 | 0.00 | 81 | 1024.0 |
| 20260504040642 | 49 | 269 | 0.0 | 0.0 | 0.00 | 0.00 | 0.00 | 81 | 1025.0 |
| 20260504040142 | 49 | 287 | 0.0 | 0.0 | 0.00 | 0.00 | 0.00 | 81 | 1024.0 |
| 20260504035641 | 49 | 287 | 0.0 | 0.0 | 0.00 | 0.00 | 0.00 | 80 | 1025.0 |
| 20260504035142 | 50 | 287 | 0.0 | 0.0 | 0.00 | 0.00 | 0.00 | 80 | 1024.0 |
| 20260504034642 | 50 | 287 | 0.0 | 0.0 | 0.00 | 0.00 | 0.00 | 81 | 1024.0 |
| 20260504034144 | 50 | 246 | 0.0 | 0.0 | 0.00 | 0.00 | 0.00 | 81 | 1024.0 |
| 20260504033641 | 50 | 217 | 0.0 | 0.0 | 0.00 | 0.00 | 0.00 | 81 | 1025.0 |
| 20260504033141 | 50 | 329 | 0.0 | 0.0 | 0.00 | 0.00 | 0.00 | 80 | 1025.0 |
| 20260504032641 | 50 | 269 | 0.0 | 0.0 | 0.00 | 0.00 | 0.00 | 80 | 1024.0 |
| 20260504032143 | 50 | 309 | 0.0 | 0.0 | 0.00 | 0.00 | 0.00 | 79 | 1025.0 |
| 20260504031642 | 50 | 205 | 0.0 | 0.0 | 0.00 | 0.00 | 0.00 | 79 | 1024.0 |
| 20260504031143 | 50 | 205 | 0.0 | 0.0 | 0.00 | 0.00 | 0.00 | 79 | 1025.0 |
| 20260504030642 | 51 | 304 | 0.0 | 0.0 | 0.00 | 0.00 | 0.00 | 79 | 1025.0 |
| 20260504030143 | 51 | 304 | 0.0 | 0.9 | 0.00 | 0.00 | 0.00 | 78 | 1025.0 |
| 20260504025642 | 51 | 224 | 0.0 | 0.0 | 0.00 | 0.00 | 0.00 | 78 | 1025.0 |
| 20260504025141 | 51 | 309 | 0.0 | 0.0 | 0.00 | 0.00 | 0.00 | 77 | 1025.0 |
| 20260504024643 | 51 | 242 | 0.0 | 0.0 | 0.00 | 0.00 | 0.00 | 77 | 1025.0 |
| 20260504024141 | 52 | 309 | 0.0 | 0.0 | 0.00 | 0.00 | 0.00 | 76 | 1024.0 |
| 20260504023641 | 52 | 297 | 0.0 | 0.0 | 0.00 | 0.00 | 0.00 | 75 | 1024.0 |
| 20260504023142 | 52 | 293 | 0.0 | 0.0 | 0.00 | 0.00 | 0.00 | 74 | 1025.0 |
| 20260504022641 | 53 | 224 | 0.0 | 0.9 | 0.00 | 0.00 | 0.00 | 75 | 1024.0 |
| 20260504022146 | 53 | 315 | 0.0 | 0.0 | 0.00 | 0.00 | 0.00 | 74 | 1025.0 |
| 20260504021642 | 53 | 333 | 0.0 | 0.9 | 0.00 | 0.00 | 0.00 | 73 | 1024.0 |
| 20260504021142 | 53 | 333 | 0.0 | 0.0 | 0.00 | 0.00 | 0.00 | 72 | 1024.0 |
| 20260504020646 | 54 | 315 | 0.0 | 0.0 | 0.00 | 0.00 | 0.00 | 71 | 1024.0 |
| 20260504020141 | 54 | 224 | 0.0 | 0.0 | 0.00 | 0.00 | 0.00 | 70 | 1024.0 |
| 20260504015641 | 54 | 224 | 0.0 | 0.0 | 0.00 | 0.00 | 0.00 | 69 | 1024.0 |
| 20260504015141 | 55 | 315 | 0.0 | 0.9 | 0.00 | 0.00 | 0.00 | 68 | 1024.0 |
| 20260504014641 | 55 | 310 | 0.0 | 0.9 | 0.00 | 0.00 | 0.00 | 68 | 1024.0 |
| 20260504014141 | 55 | 311 | 0.9 | 0.9 | 0.00 | 0.00 | 0.00 | 67 | 1024.0 |
| 20260504013642 | 56 | 297 | 0.0 | 0.0 | 0.00 | 0.00 | 0.00 | 66 | 1024.0 |
| 20260504013144 | 56 | 282 | 0.0 | 0.9 | 0.00 | 0.00 | 0.00 | 65 | 1024.0 |
| 20260504012641 | 56 | 297 | 0.0 | 0.0 | 0.00 | 0.00 | 0.00 | 64 | 1024.0 |
| 20260504012141 | 57 | 297 | 0.0 | 0.0 | 0.00 | 0.00 | 0.00 | 62 | 1023.0 |
| 20260504011641 | 57 | 224 | 0.0 | 0.0 | 0.00 | 0.00 | 0.00 | 62 | 1023.0 |
| 20260504011141 | 57 | 315 | 0.0 | 0.0 | 0.00 | 0.00 | 0.00 | 61 | 1023.0 |
| 20260504010641 | 58 | 322 | 0.0 | 0.0 | 0.00 | 0.00 | 0.00 | 59 | 1024.0 |
| 20260504010143 | 58 | 297 | 0.0 | 0.9 | 0.00 | 0.00 | 0.00 | 58 | 1024.0 |
| 20260504005641 | 59 | 269 | 0.0 | 0.0 | 0.00 | 0.00 | 0.00 | 57 | 1023.0 |
| 20260504005141 | 59 | 272 | 0.9 | 0.9 | 0.00 | 0.00 | 0.00 | 56 | 1023.0 |
| 20260504004641 | 60 | 269 | 0.0 | 0.0 | 0.00 | 0.00 | 0.00 | 54 | 1023.0 |
| 20260504004141 | 60 | 283 | 0.0 | 0.9 | 0.00 | 0.00 | 0.00 | 52 | 1023.0 |
| 20260504003641 | 61 | 269 | 0.0 | 0.0 | 0.00 | 0.00 | 0.00 | 51 | 1023.0 |
| 20260504003141 | 62 | 242 | 0.0 | 0.0 | 0.00 | 0.00 | 0.00 | 49 | 1023.0 |
| 20260504002643 | 62 | 269 | 0.0 | 1.7 | 0.00 | 0.00 | 0.00 | 48 | 1023.0 |
| 20260504002142 | 63 | 304 | 0.0 | 1.7 | 0.00 | 0.00 | 0.00 | 46 | 1023.0 |
| 20260504001641 | 63 | 34 | 0.0 | 1.7 | 0.00 | 0.00 | 0.00 | 44 | 1023.0 |
| 20260504001141 | 64 | 99 | 1.7 | 1.7 | 0.00 | 0.00 | 0.00 | 43 | 1023.0 |
| 20260504000641 | 64 | 224 | 0.0 | 2.6 | 0.00 | 0.00 | 0.00 | 42 | 1023.0 |
| 20260504000141 | 64 | 138 | 1.7 | 2.6 | 0.00 | 0.00 | 0.00 | 41 | 1023.0 |
| 20260503235642 | 65 | 94 | 1.7 | 2.6 | 0.00 | 0.00 | 0.00 | 40 | 1023.0 |
| 20260503235142 | 65 | 284 | 0.9 | 3.5 | 0.00 | 0.00 | 0.00 | 41 | 1023.0 |
| 20260503234642 | 66 | 94 | 1.7 | 3.5 | 0.00 | 0.00 | 0.00 | 39 | 1023.0 |
| 20260503234144 | 66 | 78 | 2.6 | 4.3 | 0.00 | 0.00 | 0.00 | 38 | 1023.0 |
| 20260503233642 | 66 | 209 | 0.0 | 3.5 | 0.00 | 0.00 | 0.00 | 38 | 1023.0 |
| 20260503233141 | 67 | 115 | 0.9 | 2.6 | 0.00 | 0.00 | 0.00 | 38 | 1023.0 |
| 20260503232641 | 67 | 240 | 0.0 | 2.6 | 0.00 | 0.00 | 0.00 | 38 | 1023.0 |
| 20260503232141 | 68 | 79 | 4.3 | 4.3 | 0.00 | 0.00 | 0.00 | 36 | 1023.0 |
| 20260503231643 | 68 | 306 | 0.9 | 2.6 | 0.00 | 0.00 | 0.00 | 35 | 1023.0 |
| 20260503231143 | 69 | 247 | 0.0 | 2.6 | 0.00 | 0.00 | 0.00 | 36 | 1023.0 |
| 20260503230642 | 70 | 111 | 1.7 | 3.5 | 0.00 | 0.00 | 0.00 | 33 | 1023.0 |
| 20260503230141 | 70 | 102 | 4.3 | 5.2 | 0.00 | 0.00 | 0.00 | 34 | 1024.0 |
| 20260503225641 | 71 | 341 | 0.0 | 2.6 | 0.00 | 0.00 | 0.00 | 33 | 1024.0 |
| 20260503225142 | 70 | 289 | 1.7 | 2.6 | 0.00 | 0.00 | 0.00 | 34 | 1024.0 |
| 20260503224642 | 71 | 80 | 2.6 | 6.1 | 0.00 | 0.00 | 0.00 | 32 | 1023.0 |
| 20260503224142 | 72 | 116 | 2.6 | 7.8 | 0.00 | 0.00 | 0.00 | 32 | 1023.0 |
| 20260503223641 | 72 | 58 | 1.7 | 2.6 | 0.00 | 0.00 | 0.00 | 32 | 1023.0 |
| 20260503223141 | 71 | 318 | 0.9 | 3.5 | 0.00 | 0.00 | 0.00 | 33 | 1023.0 |
| 20260503222641 | 71 | 279 | 1.7 | 4.3 | 0.00 | 0.00 | 0.00 | 33 | 1023.0 |
| 20260503222141 | 71 | 131 | 4.3 | 7.8 | 0.00 | 0.00 | 0.00 | 31 | 1024.0 |
| 20260503221641 | 71 | 282 | 0.9 | 9.6 | 0.00 | 0.00 | 0.00 | 33 | 1023.0 |
| 20260503221142 | 71 | 0 | 0.0 | 5.2 | 0.00 | 0.00 | 0.00 | 32 | 1023.0 |
| 20260503220641 | 71 | 140 | 2.6 | 6.1 | 0.00 | 0.00 | 0.00 | 33 | 1024.0 |
| 20260503220145 | 71 | 109 | 2.6 | 7.8 | 0.00 | 0.00 | 0.00 | 32 | 1024.0 |
| 20260503215641 | 71 | 231 | 0.0 | 4.3 | 0.00 | 0.00 | 0.00 | 33 | 1023.0 |
| 20260503215141 | 71 | 302 | 6.1 | 7.0 | 0.00 | 0.00 | 0.00 | 34 | 1023.0 |
| 20260503214642 | 72 | 52 | 2.6 | 4.3 | 0.00 | 0.00 | 0.00 | 32 | 1023.0 |
| 20260503214141 | 71 | 102 | 0.0 | 3.5 | 0.00 | 0.00 | 0.00 | 34 | 1024.0 |
| 20260503213642 | 71 | 159 | 0.9 | 5.2 | 0.00 | 0.00 | 0.00 | 35 | 1023.0 |
| 20260503213142 | 70 | 319 | 2.6 | 5.2 | 0.00 | 0.00 | 0.00 | 36 | 1023.0 |
| 20260503212643 | 69 | 211 | 0.9 | 4.3 | 0.00 | 0.00 | 0.00 | 35 | 1024.0 |
| 20260503212143 | 70 | 296 | 4.3 | 4.3 | 0.00 | 0.00 | 0.00 | 35 | 1024.0 |
| 20260503211642 | 71 | 68 | 4.3 | 6.1 | 0.00 | 0.00 | 0.00 | 33 | 1024.0 |
| 20260503211142 | 71 | 234 | 3.5 | 6.1 | 0.00 | 0.00 | 0.00 | 32 | 1024.0 |
| 20260503210641 | 72 | 298 | 2.6 | 3.5 | 0.00 | 0.00 | 0.00 | 30 | 1024.0 |
| 20260503210141 | 74 | 84 | 3.5 | 6.1 | 0.00 | 0.00 | 0.00 | 30 | 1024.0 |
| 20260503205641 | 71 | 162 | 0.9 | 4.3 | 0.00 | 0.00 | 0.00 | 31 | 1024.0 |
| 20260503205141 | 71 | 306 | 0.0 | 3.5 | 0.00 | 0.00 | 0.00 | 29 | 1024.0 |
| 20260503204641 | 73 | 268 | 1.7 | 6.1 | 0.00 | 0.00 | 0.00 | 29 | 1024.0 |
| 20260503204141 | 71 | 354 | 0.0 | 3.5 | 0.00 | 0.00 | 0.00 | 31 | 1024.0 |
| 20260503203642 | 72 | 125 | 2.6 | 5.2 | 0.00 | 0.00 | 0.00 | 31 | 1024.0 |
| 20260503203142 | 72 | 87 | 5.2 | 6.1 | 0.00 | 0.00 | 0.00 | 32 | 1024.0 |
| 20260503202641 | 70 | 114 | 0.9 | 5.2 | 0.00 | 0.00 | 0.00 | 34 | 1024.0 |
| 20260503202143 | 70 | 247 | 3.5 | 4.3 | 0.00 | 0.00 | 0.00 | 34 | 1024.0 |
| 20260503201642 | 71 | 69 | 3.5 | 6.1 | 0.00 | 0.00 | 0.00 | 33 | 1025.0 |
| 20260503201141 | 70 | 78 | 1.7 | 4.3 | 0.00 | 0.00 | 0.00 | 32 | 1025.0 |
| 20260503200643 | 69 | 83 | 4.3 | 4.3 | 0.00 | 0.00 | 0.00 | 33 | 1025.0 |
| 20260503200143 | 69 | 190 | 1.7 | 4.3 | 0.00 | 0.00 | 0.00 | 32 | 1025.0 |
| 20260503195641 | 69 | 88 | 2.6 | 11.3 | 0.00 | 0.00 | 0.00 | 31 | 1025.0 |
| 20260503195141 | 70 | 307 | 0.9 | 9.6 | 0.00 | 0.00 | 0.00 | 31 | 1025.0 |
| 20260503194641 | 70 | 232 | 1.7 | 2.6 | 0.00 | 0.00 | 0.00 | 31 | 1025.0 |
| 20260503194141 | 70 | 78 | 5.2 | 5.2 | 0.00 | 0.00 | 0.00 | 31 | 1025.0 |
| 20260503193642 | 69 | 87 | 2.6 | 9.6 | 0.00 | 0.00 | 0.00 | 29 | 1025.0 |
| 20260503193144 | 70 | 89 | 4.3 | 7.8 | 0.00 | 0.00 | 0.00 | 28 | 1025.0 |
| 20260503192642 | 70 | 107 | 4.3 | 6.1 | 0.00 | 0.00 | 0.00 | 26 | 1025.0 |
| 20260503192141 | 69 | 297 | 1.7 | 5.2 | 0.00 | 0.00 | 0.00 | 31 | 1025.0 |
| 20260503191641 | 70 | 84 | 2.6 | 6.1 | 0.00 | 0.00 | 0.00 | 31 | 1026.0 |
| 20260503191142 | 71 | 102 | 1.7 | 6.1 | 0.00 | 0.00 | 0.00 | 31 | 1026.0 |
| 20260503190643 | 70 | 210 | 0.0 | 3.5 | 0.00 | 0.00 | 0.00 | 35 | 1026.0 |
| 20260503190142 | 68 | 133 | 2.6 | 2.6 | 0.00 | 0.00 | 0.00 | 35 | 1026.0 |
| 20260503185641 | 69 | 140 | 2.6 | 4.3 | 0.00 | 0.00 | 0.00 | 34 | 1026.0 |
| 20260503185141 | 68 | 311 | 0.9 | 4.3 | 0.00 | 0.00 | 0.00 | 35 | 1026.0 |
| 20260503184642 | 70 | 106 | 1.7 | 3.5 | 0.00 | 0.00 | 0.00 | 34 | 1026.0 |
| 20260503184141 | 69 | 95 | 5.2 | 5.2 | 0.00 | 0.00 | 0.00 | 37 | 1026.0 |
| 20260503183642 | 68 | 110 | 2.6 | 3.5 | 0.00 | 0.00 | 0.00 | 36 | 1026.0 |
| 20260503183141 | 68 | 215 | 0.9 | 4.3 | 0.00 | 0.00 | 0.00 | 38 | 1026.0 |
| 20260503182642 | 67 | 302 | 4.3 | 4.3 | 0.00 | 0.00 | 0.00 | 38 | 1027.0 |
| 20260503182144 | 68 | 108 | 0.9 | 6.1 | 0.00 | 0.00 | 0.00 | 38 | 1027.0 |
| 20260503181642 | 68 | 310 | 1.7 | 4.3 | 0.00 | 0.00 | 0.00 | 39 | 1026.0 |
| 20260503181142 | 67 | 311 | 2.6 | 6.1 | 0.00 | 0.00 | 0.00 | 38 | 1026.0 |
| 20260503180642 | 67 | 98 | 3.5 | 4.3 | 0.00 | 0.00 | 0.00 | 37 | 1026.0 |
| 20260503180141 | 66 | 288 | 0.0 | 5.2 | 0.00 | 0.00 | 0.00 | 41 | 1027.0 |
| 20260503175643 | 64 | 241 | 0.9 | 4.3 | 0.00 | 0.00 | 0.00 | 41 | 1026.0 |
| 20260503175141 | 66 | 303 | 4.3 | 4.3 | 0.00 | 0.00 | 0.00 | 38 | 1027.0 |
| 20260503174642 | 67 | 276 | 0.9 | 7.8 | 0.00 | 0.00 | 0.00 | 38 | 1026.0 |
| 20260503174142 | 67 | 300 | 2.6 | 7.8 | 0.00 | 0.00 | 0.00 | 37 | 1027.0 |
| 20260503173641 | 69 | 258 | 2.6 | 3.5 | 0.00 | 0.00 | 0.00 | 33 | 1027.0 |
| 20260503173142 | 67 | 235 | 0.0 | 1.7 | 0.00 | 0.00 | 0.00 | 36 | 1027.0 |
| 20260503172641 | 66 | 281 | 0.0 | 4.3 | 0.00 | 0.00 | 0.00 | 35 | 1027.0 |
| 20260503172141 | 66 | 290 | 4.3 | 4.3 | 0.00 | 0.00 | 0.00 | 37 | 1027.0 |
| 20260503171641 | 67 | 166 | 0.9 | 5.2 | 0.00 | 0.00 | 0.00 | 34 | 1027.0 |
| 20260503171141 | 66 | 245 | 0.9 | 7.0 | 0.00 | 0.00 | 0.00 | 36 | 1027.0 |
| 20260503170642 | 67 | 74 | 2.6 | 3.5 | 0.00 | 0.00 | 0.00 | 35 | 1027.0 |
| 20260503170142 | 65 | 180 | 1.7 | 2.6 | 0.00 | 0.00 | 0.00 | 39 | 1027.0 |
| 20260503160142 | 63 | 218 | 2.6 | 2.6 | 0.00 | 0.00 | 0.00 | 40 | 1028.0 |